sensor_id;sensor_type;location;lat;lon;timestamp;P1;durP1;ratioP1;P2;durP2;ratioP2
18338;SDS011;9295;44.484;11.240;2023-03-01T00:01:46;39.63;;;23.27;;
18338;SDS011;9295;44.484;11.240;2023-03-01T00:04:15;36.23;;;20.93;;
18338;SDS011;9295;44.484;11.240;2023-03-01T00:06:45;34.77;;;20.57;;
18338;SDS011;9295;44.484;11.240;2023-03-01T00:09:14;37.00;;;21.73;;
18338;SDS011;9295;44.484;11.240;2023-03-01T00:11:43;35.23;;;21.13;;
18338;SDS011;9295;44.484;11.240;2023-03-01T00:14:12;37.50;;;20.53;;
18338;SDS011;9295;44.484;11.240;2023-03-01T00:16:43;42.37;;;21.50;;
18338;SDS011;9295;44.484;11.240;2023-03-01T00:19:13;39.70;;;21.40;;
18338;SDS011;9295;44.484;11.240;2023-03-01T00:21:43;36.67;;;21.13;;
18338;SDS011;9295;44.484;11.240;2023-03-01T00:24:13;35.10;;;19.70;;
18338;SDS011;9295;44.484;11.240;2023-03-01T00:26:42;32.90;;;19.60;;
18338;SDS011;9295;44.484;11.240;2023-03-01T00:29:10;36.37;;;21.13;;
18338;SDS011;9295;44.484;11.240;2023-03-01T00:31:39;37.93;;;20.23;;
18338;SDS011;9295;44.484;11.240;2023-03-01T00:34:07;37.70;;;22.07;;
18338;SDS011;9295;44.484;11.240;2023-03-01T00:36:37;31.43;;;19.80;;
18338;SDS011;9295;44.484;11.240;2023-03-01T00:39:09;41.10;;;21.13;;
18338;SDS011;9295;44.484;11.240;2023-03-01T00:41:40;35.20;;;20.67;;
18338;SDS011;9295;44.484;11.240;2023-03-01T00:44:09;35.37;;;21.30;;
18338;SDS011;9295;44.484;11.240;2023-03-01T00:46:38;34.73;;;20.63;;
18338;SDS011;9295;44.484;11.240;2023-03-01T00:49:07;35.60;;;18.83;;
18338;SDS011;9295;44.484;11.240;2023-03-01T00:51:35;38.97;;;22.17;;
18338;SDS011;9295;44.484;11.240;2023-03-01T00:54:05;33.43;;;21.37;;
18338;SDS011;9295;44.484;11.240;2023-03-01T00:56:35;29.37;;;18.97;;
18338;SDS011;9295;44.484;11.240;2023-03-01T00:59:05;38.03;;;20.57;;
18338;SDS011;9295;44.484;11.240;2023-03-01T01:01:34;30.13;;;18.93;;
18338;SDS011;9295;44.484;11.240;2023-03-01T01:04:03;34.40;;;19.93;;
18338;SDS011;9295;44.484;11.240;2023-03-01T01:06:34;38.77;;;21.30;;
18338;SDS011;9295;44.484;11.240;2023-03-01T01:09:04;38.93;;;21.90;;
18338;SDS011;9295;44.484;11.240;2023-03-01T01:11:34;35.60;;;21.37;;
18338;SDS011;9295;44.484;11.240;2023-03-01T01:14:05;33.00;;;20.37;;
18338;SDS011;9295;44.484;11.240;2023-03-01T01:16:33;33.40;;;20.13;;
18338;SDS011;9295;44.484;11.240;2023-03-01T01:19:02;33.03;;;19.10;;
18338;SDS011;9295;44.484;11.240;2023-03-01T01:21:31;32.70;;;19.40;;
18338;SDS011;9295;44.484;11.240;2023-03-01T01:24:02;36.13;;;20.80;;
18338;SDS011;9295;44.484;11.240;2023-03-01T01:26:32;34.50;;;20.00;;
18338;SDS011;9295;44.484;11.240;2023-03-01T01:29:02;31.03;;;19.30;;
18338;SDS011;9295;44.484;11.240;2023-03-01T01:31:33;35.53;;;20.10;;
18338;SDS011;9295;44.484;11.240;2023-03-01T01:34:04;33.77;;;20.20;;
18338;SDS011;9295;44.484;11.240;2023-03-01T01:36:34;31.33;;;20.10;;
18338;SDS011;9295;44.484;11.240;2023-03-01T01:39:03;32.60;;;19.73;;
18338;SDS011;9295;44.484;11.240;2023-03-01T01:41:32;31.90;;;20.27;;
18338;SDS011;9295;44.484;11.240;2023-03-01T01:44:13;30.23;;;18.63;;
18338;SDS011;9295;44.484;11.240;2023-03-01T01:46:44;30.77;;;19.23;;
18338;SDS011;9295;44.484;11.240;2023-03-01T01:49:25;33.90;;;18.87;;
18338;SDS011;9295;44.484;11.240;2023-03-01T01:52:03;38.60;;;20.23;;
18338;SDS011;9295;44.484;11.240;2023-03-01T01:54:41;38.40;;;20.17;;
18338;SDS011;9295;44.484;11.240;2023-03-01T01:57:14;36.10;;;19.80;;
18338;SDS011;9295;44.484;11.240;2023-03-01T01:59:47;30.70;;;19.20;;
18338;SDS011;9295;44.484;11.240;2023-03-01T02:02:19;34.13;;;20.90;;
18338;SDS011;9295;44.484;11.240;2023-03-01T02:04:48;31.20;;;20.60;;
18338;SDS011;9295;44.484;11.240;2023-03-01T02:07:21;41.00;;;21.60;;
18338;SDS011;9295;44.484;11.240;2023-03-01T02:09:51;37.23;;;19.27;;
18338;SDS011;9295;44.484;11.240;2023-03-01T02:12:21;34.90;;;19.50;;
18338;SDS011;9295;44.484;11.240;2023-03-01T02:14:53;35.93;;;20.30;;
18338;SDS011;9295;44.484;11.240;2023-03-01T02:17:22;35.03;;;20.07;;
18338;SDS011;9295;44.484;11.240;2023-03-01T02:19:54;36.60;;;19.13;;
18338;SDS011;9295;44.484;11.240;2023-03-01T02:22:34;30.30;;;18.60;;
18338;SDS011;9295;44.484;11.240;2023-03-01T02:25:07;31.50;;;19.90;;
18338;SDS011;9295;44.484;11.240;2023-03-01T02:27:49;34.00;;;20.17;;
18338;SDS011;9295;44.484;11.240;2023-03-01T02:30:25;32.57;;;19.57;;
18338;SDS011;9295;44.484;11.240;2023-03-01T02:32:56;35.53;;;19.80;;
18338;SDS011;9295;44.484;11.240;2023-03-01T02:35:30;31.07;;;18.37;;
18338;SDS011;9295;44.484;11.240;2023-03-01T02:38:01;36.03;;;20.27;;
18338;SDS011;9295;44.484;11.240;2023-03-01T02:40:31;32.30;;;19.93;;
18338;SDS011;9295;44.484;11.240;2023-03-01T02:43:02;34.70;;;19.80;;
18338;SDS011;9295;44.484;11.240;2023-03-01T02:45:36;33.60;;;20.37;;
18338;SDS011;9295;44.484;11.240;2023-03-01T02:48:05;40.67;;;21.87;;
18338;SDS011;9295;44.484;11.240;2023-03-01T02:50:41;29.33;;;19.10;;
18338;SDS011;9295;44.484;11.240;2023-03-01T02:53:21;38.40;;;19.40;;
18338;SDS011;9295;44.484;11.240;2023-03-01T02:55:53;37.17;;;20.30;;
18338;SDS011;9295;44.484;11.240;2023-03-01T02:58:23;27.70;;;17.70;;
18338;SDS011;9295;44.484;11.240;2023-03-01T03:00:53;34.80;;;20.07;;
18338;SDS011;9295;44.484;11.240;2023-03-01T03:03:22;34.83;;;20.03;;
18338;SDS011;9295;44.484;11.240;2023-03-01T03:05:50;31.70;;;20.00;;
18338;SDS011;9295;44.484;11.240;2023-03-01T03:08:19;32.27;;;19.67;;
18338;SDS011;9295;44.484;11.240;2023-03-01T03:10:51;29.03;;;18.97;;
18338;SDS011;9295;44.484;11.240;2023-03-01T03:13:21;34.87;;;19.47;;
18338;SDS011;9295;44.484;11.240;2023-03-01T03:15:56;29.20;;;19.13;;
18338;SDS011;9295;44.484;11.240;2023-03-01T03:18:25;28.47;;;18.70;;
18338;SDS011;9295;44.484;11.240;2023-03-01T03:20:54;36.47;;;19.50;;
18338;SDS011;9295;44.484;11.240;2023-03-01T03:23:23;30.47;;;20.40;;
18338;SDS011;9295;44.484;11.240;2023-03-01T03:25:51;33.07;;;20.43;;
18338;SDS011;9295;44.484;11.240;2023-03-01T03:28:20;31.67;;;20.00;;
18338;SDS011;9295;44.484;11.240;2023-03-01T03:30:48;46.17;;;20.33;;
18338;SDS011;9295;44.484;11.240;2023-03-01T03:33:19;30.60;;;19.00;;
18338;SDS011;9295;44.484;11.240;2023-03-01T03:35:48;33.07;;;19.00;;
18338;SDS011;9295;44.484;11.240;2023-03-01T03:38:18;36.03;;;20.27;;
18338;SDS011;9295;44.484;11.240;2023-03-01T03:40:49;33.13;;;20.00;;
18338;SDS011;9295;44.484;11.240;2023-03-01T03:43:19;38.77;;;20.70;;
18338;SDS011;9295;44.484;11.240;2023-03-01T03:45:49;33.00;;;20.03;;
18338;SDS011;9295;44.484;11.240;2023-03-01T03:48:20;33.53;;;20.00;;
18338;SDS011;9295;44.484;11.240;2023-03-01T03:50:49;38.93;;;20.07;;
18338;SDS011;9295;44.484;11.240;2023-03-01T03:53:19;31.60;;;18.70;;
18338;SDS011;9295;44.484;11.240;2023-03-01T03:55:48;36.93;;;21.77;;
18338;SDS011;9295;44.484;11.240;2023-03-01T03:58:18;30.40;;;19.83;;
18338;SDS011;9295;44.484;11.240;2023-03-01T04:00:48;37.63;;;20.30;;
18338;SDS011;9295;44.484;11.240;2023-03-01T04:03:19;29.70;;;19.00;;
18338;SDS011;9295;44.484;11.240;2023-03-01T04:05:50;31.30;;;20.40;;
18338;SDS011;9295;44.484;11.240;2023-03-01T04:08:19;35.40;;;20.40;;
18338;SDS011;9295;44.484;11.240;2023-03-01T04:10:50;32.07;;;19.50;;
18338;SDS011;9295;44.484;11.240;2023-03-01T04:13:20;37.87;;;20.37;;
18338;SDS011;9295;44.484;11.240;2023-03-01T04:15:52;36.83;;;22.17;;
18338;SDS011;9295;44.484;11.240;2023-03-01T04:18:23;30.47;;;19.33;;
18338;SDS011;9295;44.484;11.240;2023-03-01T04:20:52;35.53;;;20.33;;
18338;SDS011;9295;44.484;11.240;2023-03-01T04:23:39;34.03;;;21.30;;
18338;SDS011;9295;44.484;11.240;2023-03-01T04:26:08;34.03;;;21.17;;
18338;SDS011;9295;44.484;11.240;2023-03-01T04:28:38;36.33;;;21.07;;
18338;SDS011;9295;44.484;11.240;2023-03-01T04:31:10;32.87;;;21.20;;
18338;SDS011;9295;44.484;11.240;2023-03-01T04:33:46;38.93;;;21.57;;
18338;SDS011;9295;44.484;11.240;2023-03-01T04:36:16;37.60;;;22.60;;
18338;SDS011;9295;44.484;11.240;2023-03-01T04:38:45;34.00;;;20.77;;
18338;SDS011;9295;44.484;11.240;2023-03-01T04:41:15;34.63;;;21.60;;
18338;SDS011;9295;44.484;11.240;2023-03-01T04:43:45;39.20;;;20.70;;
18338;SDS011;9295;44.484;11.240;2023-03-01T04:46:15;44.67;;;23.40;;
18338;SDS011;9295;44.484;11.240;2023-03-01T04:48:47;39.73;;;21.17;;
18338;SDS011;9295;44.484;11.240;2023-03-01T04:51:16;33.10;;;21.13;;
18338;SDS011;9295;44.484;11.240;2023-03-01T04:53:45;39.53;;;24.17;;
18338;SDS011;9295;44.484;11.240;2023-03-01T04:56:13;41.07;;;23.57;;
18338;SDS011;9295;44.484;11.240;2023-03-01T04:58:44;34.87;;;22.00;;
18338;SDS011;9295;44.484;11.240;2023-03-01T05:01:14;39.13;;;23.07;;
18338;SDS011;9295;44.484;11.240;2023-03-01T05:03:48;37.13;;;22.67;;
18338;SDS011;9295;44.484;11.240;2023-03-01T05:06:18;36.77;;;23.00;;
18338;SDS011;9295;44.484;11.240;2023-03-01T05:08:48;39.03;;;22.23;;
18338;SDS011;9295;44.484;11.240;2023-03-01T05:11:17;35.93;;;22.60;;
18338;SDS011;9295;44.484;11.240;2023-03-01T05:13:45;38.90;;;22.87;;
18338;SDS011;9295;44.484;11.240;2023-03-01T05:16:14;36.07;;;22.97;;
18338;SDS011;9295;44.484;11.240;2023-03-01T05:18:43;35.87;;;21.70;;
18338;SDS011;9295;44.484;11.240;2023-03-01T05:21:14;40.90;;;23.60;;
18338;SDS011;9295;44.484;11.240;2023-03-01T05:23:43;43.27;;;25.00;;
18338;SDS011;9295;44.484;11.240;2023-03-01T05:26:13;53.07;;;24.80;;
18338;SDS011;9295;44.484;11.240;2023-03-01T05:28:59;45.63;;;24.63;;
18338;SDS011;9295;44.484;11.240;2023-03-01T05:31:27;46.03;;;24.77;;
18338;SDS011;9295;44.484;11.240;2023-03-01T05:33:57;41.63;;;24.33;;
18338;SDS011;9295;44.484;11.240;2023-03-01T05:36:27;40.23;;;22.87;;
18338;SDS011;9295;44.484;11.240;2023-03-01T05:38:56;45.87;;;25.67;;
18338;SDS011;9295;44.484;11.240;2023-03-01T05:41:24;43.17;;;24.50;;
18338;SDS011;9295;44.484;11.240;2023-03-01T05:43:53;35.70;;;22.17;;
18338;SDS011;9295;44.484;11.240;2023-03-01T05:46:21;42.80;;;24.77;;
18338;SDS011;9295;44.484;11.240;2023-03-01T05:48:51;42.60;;;25.63;;
18338;SDS011;9295;44.484;11.240;2023-03-01T05:51:19;41.30;;;24.17;;
18338;SDS011;9295;44.484;11.240;2023-03-01T05:53:50;43.30;;;24.83;;
18338;SDS011;9295;44.484;11.240;2023-03-01T05:56:18;45.03;;;25.03;;
18338;SDS011;9295;44.484;11.240;2023-03-01T05:58:48;42.43;;;24.13;;
18338;SDS011;9295;44.484;11.240;2023-03-01T06:01:17;45.03;;;26.20;;
18338;SDS011;9295;44.484;11.240;2023-03-01T06:03:46;44.00;;;24.87;;
18338;SDS011;9295;44.484;11.240;2023-03-01T06:06:14;42.17;;;26.03;;
18338;SDS011;9295;44.484;11.240;2023-03-01T06:08:43;41.37;;;23.33;;
18338;SDS011;9295;44.484;11.240;2023-03-01T06:11:13;40.23;;;24.77;;
18338;SDS011;9295;44.484;11.240;2023-03-01T06:13:41;61.13;;;27.03;;
18338;SDS011;9295;44.484;11.240;2023-03-01T06:16:10;48.13;;;26.97;;
18338;SDS011;9295;44.484;11.240;2023-03-01T06:18:39;42.80;;;26.20;;
18338;SDS011;9295;44.484;11.240;2023-03-01T06:21:08;46.00;;;27.60;;
18338;SDS011;9295;44.484;11.240;2023-03-01T06:23:37;48.83;;;27.73;;
18338;SDS011;9295;44.484;11.240;2023-03-01T06:26:06;45.70;;;27.67;;
18338;SDS011;9295;44.484;11.240;2023-03-01T06:28:37;46.07;;;28.47;;
18338;SDS011;9295;44.484;11.240;2023-03-01T06:31:05;46.57;;;27.50;;
18338;SDS011;9295;44.484;11.240;2023-03-01T06:33:35;56.43;;;27.60;;
18338;SDS011;9295;44.484;11.240;2023-03-01T06:36:04;46.03;;;27.37;;
18338;SDS011;9295;44.484;11.240;2023-03-01T06:38:33;47.30;;;27.57;;
18338;SDS011;9295;44.484;11.240;2023-03-01T06:41:01;48.57;;;28.87;;
18338;SDS011;9295;44.484;11.240;2023-03-01T06:43:30;46.70;;;27.87;;
18338;SDS011;9295;44.484;11.240;2023-03-01T06:46:00;48.77;;;26.90;;
18338;SDS011;9295;44.484;11.240;2023-03-01T06:48:31;49.93;;;28.83;;
18338;SDS011;9295;44.484;11.240;2023-03-01T06:51:00;50.63;;;28.70;;
18338;SDS011;9295;44.484;11.240;2023-03-01T06:53:29;47.00;;;27.43;;
18338;SDS011;9295;44.484;11.240;2023-03-01T06:55:58;49.73;;;28.63;;
18338;SDS011;9295;44.484;11.240;2023-03-01T06:58:26;46.80;;;28.47;;
18338;SDS011;9295;44.484;11.240;2023-03-01T07:00:55;46.73;;;29.10;;
18338;SDS011;9295;44.484;11.240;2023-03-01T07:03:25;56.30;;;29.63;;
18338;SDS011;9295;44.484;11.240;2023-03-01T07:05:53;50.77;;;29.90;;
18338;SDS011;9295;44.484;11.240;2023-03-01T07:08:22;52.37;;;28.30;;
18338;SDS011;9295;44.484;11.240;2023-03-01T07:10:54;50.10;;;30.73;;
18338;SDS011;9295;44.484;11.240;2023-03-01T07:13:23;52.83;;;28.37;;
18338;SDS011;9295;44.484;11.240;2023-03-01T07:15:52;49.03;;;29.43;;
18338;SDS011;9295;44.484;11.240;2023-03-01T07:18:21;47.43;;;29.40;;
18338;SDS011;9295;44.484;11.240;2023-03-01T07:20:51;51.03;;;31.30;;
18338;SDS011;9295;44.484;11.240;2023-03-01T07:23:20;54.03;;;31.30;;
18338;SDS011;9295;44.484;11.240;2023-03-01T07:25:51;53.13;;;32.20;;
18338;SDS011;9295;44.484;11.240;2023-03-01T07:28:22;54.60;;;32.73;;
18338;SDS011;9295;44.484;11.240;2023-03-01T07:30:51;52.33;;;32.47;;
18338;SDS011;9295;44.484;11.240;2023-03-01T07:33:19;57.33;;;35.40;;
18338;SDS011;9295;44.484;11.240;2023-03-01T07:35:48;55.63;;;34.20;;
18338;SDS011;9295;44.484;11.240;2023-03-01T07:38:25;63.80;;;33.87;;
18338;SDS011;9295;44.484;11.240;2023-03-01T07:40:57;57.20;;;33.57;;
18338;SDS011;9295;44.484;11.240;2023-03-01T07:43:27;57.30;;;35.40;;
18338;SDS011;9295;44.484;11.240;2023-03-01T07:45:57;57.40;;;32.80;;
18338;SDS011;9295;44.484;11.240;2023-03-01T07:48:27;57.07;;;31.93;;
18338;SDS011;9295;44.484;11.240;2023-03-01T07:50:58;55.77;;;32.70;;
18338;SDS011;9295;44.484;11.240;2023-03-01T07:53:27;53.03;;;32.00;;
18338;SDS011;9295;44.484;11.240;2023-03-01T07:56:01;50.97;;;30.93;;
18338;SDS011;9295;44.484;11.240;2023-03-01T07:58:30;55.13;;;31.77;;
18338;SDS011;9295;44.484;11.240;2023-03-01T08:01:00;46.67;;;30.90;;
18338;SDS011;9295;44.484;11.240;2023-03-01T08:03:29;49.60;;;30.20;;
18338;SDS011;9295;44.484;11.240;2023-03-01T08:06:00;53.80;;;31.57;;
18338;SDS011;9295;44.484;11.240;2023-03-01T08:08:29;51.93;;;31.93;;
18338;SDS011;9295;44.484;11.240;2023-03-01T08:10:58;51.00;;;31.87;;
18338;SDS011;9295;44.484;11.240;2023-03-01T08:13:28;51.20;;;29.80;;
18338;SDS011;9295;44.484;11.240;2023-03-01T08:16:00;51.33;;;31.03;;
18338;SDS011;9295;44.484;11.240;2023-03-01T08:18:29;50.03;;;31.57;;
18338;SDS011;9295;44.484;11.240;2023-03-01T08:21:02;54.27;;;33.90;;
18338;SDS011;9295;44.484;11.240;2023-03-01T08:23:31;55.57;;;32.77;;
18338;SDS011;9295;44.484;11.240;2023-03-01T08:26:04;46.97;;;29.70;;
18338;SDS011;9295;44.484;11.240;2023-03-01T08:28:34;49.10;;;30.50;;
18338;SDS011;9295;44.484;11.240;2023-03-01T08:31:02;47.20;;;30.73;;
18338;SDS011;9295;44.484;11.240;2023-03-01T08:33:40;53.40;;;30.60;;
18338;SDS011;9295;44.484;11.240;2023-03-01T08:36:10;46.80;;;30.07;;
18338;SDS011;9295;44.484;11.240;2023-03-01T08:38:39;53.13;;;31.43;;
18338;SDS011;9295;44.484;11.240;2023-03-01T08:41:07;50.60;;;31.87;;
18338;SDS011;9295;44.484;11.240;2023-03-01T08:43:36;56.63;;;30.40;;
18338;SDS011;9295;44.484;11.240;2023-03-01T08:46:04;50.07;;;30.10;;
18338;SDS011;9295;44.484;11.240;2023-03-01T08:48:33;44.00;;;29.43;;
18338;SDS011;9295;44.484;11.240;2023-03-01T08:51:08;48.77;;;29.57;;
18338;SDS011;9295;44.484;11.240;2023-03-01T08:53:39;43.50;;;27.70;;
18338;SDS011;9295;44.484;11.240;2023-03-01T08:56:08;48.60;;;30.37;;
18338;SDS011;9295;44.484;11.240;2023-03-01T08:58:37;42.40;;;28.30;;
18338;SDS011;9295;44.484;11.240;2023-03-01T09:01:07;43.47;;;28.50;;
18338;SDS011;9295;44.484;11.240;2023-03-01T09:03:36;56.50;;;29.77;;
18338;SDS011;9295;44.484;11.240;2023-03-01T09:06:05;40.00;;;27.27;;
18338;SDS011;9295;44.484;11.240;2023-03-01T09:08:36;41.63;;;28.23;;
18338;SDS011;9295;44.484;11.240;2023-03-01T09:11:06;41.23;;;26.70;;
18338;SDS011;9295;44.484;11.240;2023-03-01T09:13:37;40.03;;;25.37;;
18338;SDS011;9295;44.484;11.240;2023-03-01T09:16:10;38.93;;;25.77;;
18338;SDS011;9295;44.484;11.240;2023-03-01T09:18:40;38.17;;;25.17;;
18338;SDS011;9295;44.484;11.240;2023-03-01T09:21:09;41.33;;;24.57;;
18338;SDS011;9295;44.484;11.240;2023-03-01T09:23:41;37.43;;;24.73;;
18338;SDS011;9295;44.484;11.240;2023-03-01T09:26:11;38.93;;;25.80;;
18338;SDS011;9295;44.484;11.240;2023-03-01T09:28:43;39.60;;;25.50;;
18338;SDS011;9295;44.484;11.240;2023-03-01T09:31:12;36.53;;;23.73;;
18338;SDS011;9295;44.484;11.240;2023-03-01T09:33:41;33.90;;;22.70;;
18338;SDS011;9295;44.484;11.240;2023-03-01T09:36:13;42.30;;;23.73;;
18338;SDS011;9295;44.484;11.240;2023-03-01T09:38:44;32.43;;;21.17;;
18338;SDS011;9295;44.484;11.240;2023-03-01T09:41:18;35.10;;;21.17;;
18338;SDS011;9295;44.484;11.240;2023-03-01T09:44:01;33.83;;;22.93;;
18338;SDS011;9295;44.484;11.240;2023-03-01T09:46:40;35.83;;;23.17;;
18338;SDS011;9295;44.484;11.240;2023-03-01T09:49:11;35.67;;;22.70;;
18338;SDS011;9295;44.484;11.240;2023-03-01T09:51:50;34.20;;;23.23;;
18338;SDS011;9295;44.484;11.240;2023-03-01T09:54:25;40.70;;;21.77;;
18338;SDS011;9295;44.484;11.240;2023-03-01T09:56:57;34.30;;;22.50;;
18338;SDS011;9295;44.484;11.240;2023-03-01T09:59:36;32.90;;;21.27;;
18338;SDS011;9295;44.484;11.240;2023-03-01T10:02:18;33.80;;;22.33;;
18338;SDS011;9295;44.484;11.240;2023-03-01T10:04:55;31.00;;;20.40;;
18338;SDS011;9295;44.484;11.240;2023-03-01T10:07:32;32.40;;;21.10;;
18338;SDS011;9295;44.484;11.240;2023-03-01T10:10:15;30.50;;;20.60;;
18338;SDS011;9295;44.484;11.240;2023-03-01T10:12:51;31.30;;;19.77;;
18338;SDS011;9295;44.484;11.240;2023-03-01T10:15:22;30.27;;;19.60;;
18338;SDS011;9295;44.484;11.240;2023-03-01T10:18:00;32.43;;;21.20;;
18338;SDS011;9295;44.484;11.240;2023-03-01T10:20:36;32.70;;;20.70;;
18338;SDS011;9295;44.484;11.240;2023-03-01T10:23:11;32.30;;;21.20;;
18338;SDS011;9295;44.484;11.240;2023-03-01T10:25:44;32.87;;;20.90;;
18338;SDS011;9295;44.484;11.240;2023-03-01T10:28:25;31.27;;;20.53;;
18338;SDS011;9295;44.484;11.240;2023-03-01T10:30:57;30.60;;;19.13;;
18338;SDS011;9295;44.484;11.240;2023-03-01T10:33:28;34.30;;;19.07;;
18338;SDS011;9295;44.484;11.240;2023-03-01T10:36:00;30.10;;;18.37;;
18338;SDS011;9295;44.484;11.240;2023-03-01T10:38:30;32.20;;;18.67;;
18338;SDS011;9295;44.484;11.240;2023-03-01T10:41:15;28.50;;;18.87;;
18338;SDS011;9295;44.484;11.240;2023-03-01T10:43:45;32.63;;;18.33;;
18338;SDS011;9295;44.484;11.240;2023-03-01T10:46:21;30.87;;;18.13;;
18338;SDS011;9295;44.484;11.240;2023-03-01T10:51:43;26.17;;;17.00;;
18338;SDS011;9295;44.484;11.240;2023-03-01T10:54:17;29.97;;;18.70;;
18338;SDS011;9295;44.484;11.240;2023-03-01T10:56:49;30.60;;;18.53;;
18338;SDS011;9295;44.484;11.240;2023-03-01T10:59:22;31.40;;;18.17;;
18338;SDS011;9295;44.484;11.240;2023-03-01T11:02:02;28.50;;;16.77;;
18338;SDS011;9295;44.484;11.240;2023-03-01T11:05:00;30.63;;;19.30;;
18338;SDS011;9295;44.484;11.240;2023-03-01T11:07:46;28.47;;;17.60;;
18338;SDS011;9295;44.484;11.240;2023-03-01T11:10:17;26.80;;;17.67;;
18338;SDS011;9295;44.484;11.240;2023-03-01T11:12:48;31.90;;;18.90;;
18338;SDS011;9295;44.484;11.240;2023-03-01T11:15:22;34.77;;;19.47;;
18338;SDS011;9295;44.484;11.240;2023-03-01T11:17:53;29.97;;;17.93;;
18338;SDS011;9295;44.484;11.240;2023-03-01T11:20:38;31.90;;;18.30;;
18338;SDS011;9295;44.484;11.240;2023-03-01T11:23:08;30.13;;;17.00;;
18338;SDS011;9295;44.484;11.240;2023-03-01T11:25:40;32.33;;;18.37;;
18338;SDS011;9295;44.484;11.240;2023-03-01T11:28:13;31.93;;;18.77;;
18338;SDS011;9295;44.484;11.240;2023-03-01T11:30:47;30.83;;;18.37;;
18338;SDS011;9295;44.484;11.240;2023-03-01T11:33:35;30.67;;;18.27;;
18338;SDS011;9295;44.484;11.240;2023-03-01T11:36:13;28.73;;;17.87;;
18338;SDS011;9295;44.484;11.240;2023-03-01T11:38:56;29.53;;;19.60;;
18338;SDS011;9295;44.484;11.240;2023-03-01T11:41:30;28.20;;;18.07;;
18338;SDS011;9295;44.484;11.240;2023-03-01T11:44:03;28.10;;;18.87;;
18338;SDS011;9295;44.484;11.240;2023-03-01T11:46:44;29.43;;;18.33;;
18338;SDS011;9295;44.484;11.240;2023-03-01T11:49:31;34.10;;;19.53;;
18338;SDS011;9295;44.484;11.240;2023-03-01T11:52:22;29.47;;;18.57;;
18338;SDS011;9295;44.484;11.240;2023-03-01T11:55:07;27.60;;;17.80;;
18338;SDS011;9295;44.484;11.240;2023-03-01T11:57:51;25.20;;;17.23;;
18338;SDS011;9295;44.484;11.240;2023-03-01T12:00:42;28.43;;;18.07;;
18338;SDS011;9295;44.484;11.240;2023-03-01T12:03:25;25.00;;;16.73;;
18338;SDS011;9295;44.484;11.240;2023-03-01T12:09:04;31.50;;;19.07;;
18338;SDS011;9295;44.484;11.240;2023-03-01T12:11:48;26.97;;;17.50;;
18338;SDS011;9295;44.484;11.240;2023-03-01T12:17:23;26.67;;;17.67;;
18338;SDS011;9295;44.484;11.240;2023-03-01T12:20:07;27.30;;;16.70;;
18338;SDS011;9295;44.484;11.240;2023-03-01T12:22:52;28.00;;;17.90;;
18338;SDS011;9295;44.484;11.240;2023-03-01T12:25:46;22.77;;;16.77;;
18338;SDS011;9295;44.484;11.240;2023-03-01T12:28:23;24.20;;;17.27;;
18338;SDS011;9295;44.484;11.240;2023-03-01T12:31:10;25.53;;;17.33;;
18338;SDS011;9295;44.484;11.240;2023-03-01T12:34:04;23.53;;;16.20;;
18338;SDS011;9295;44.484;11.240;2023-03-01T12:37:01;30.63;;;18.83;;
18338;SDS011;9295;44.484;11.240;2023-03-01T12:39:45;24.53;;;16.40;;
18338;SDS011;9295;44.484;11.240;2023-03-01T12:42:25;27.13;;;16.50;;
18338;SDS011;9295;44.484;11.240;2023-03-01T12:45:05;24.80;;;16.10;;
18338;SDS011;9295;44.484;11.240;2023-03-01T12:47:54;23.93;;;16.50;;
18338;SDS011;9295;44.484;11.240;2023-03-01T12:50:36;25.40;;;17.10;;
18338;SDS011;9295;44.484;11.240;2023-03-01T12:53:13;24.37;;;15.47;;
18338;SDS011;9295;44.484;11.240;2023-03-01T12:55:51;23.37;;;15.80;;
18338;SDS011;9295;44.484;11.240;2023-03-01T12:58:25;22.50;;;15.20;;
18338;SDS011;9295;44.484;11.240;2023-03-01T13:01:16;25.60;;;15.20;;
18338;SDS011;9295;44.484;11.240;2023-03-01T13:06:50;23.27;;;15.33;;
18338;SDS011;9295;44.484;11.240;2023-03-01T13:09:28;22.60;;;15.17;;
18338;SDS011;9295;44.484;11.240;2023-03-01T13:12:02;20.27;;;14.70;;
18338;SDS011;9295;44.484;11.240;2023-03-01T13:14:45;19.50;;;13.80;;
18338;SDS011;9295;44.484;11.240;2023-03-01T13:17:33;20.40;;;14.17;;
18338;SDS011;9295;44.484;11.240;2023-03-01T13:20:12;19.90;;;13.53;;
18338;SDS011;9295;44.484;11.240;2023-03-01T13:22:44;20.63;;;14.73;;
18338;SDS011;9295;44.484;11.240;2023-03-01T13:25:20;18.97;;;12.80;;
18338;SDS011;9295;44.484;11.240;2023-03-01T13:31:05;18.77;;;13.37;;
18338;SDS011;9295;44.484;11.240;2023-03-01T13:33:41;19.30;;;13.17;;
18338;SDS011;9295;44.484;11.240;2023-03-01T13:39:29;18.93;;;12.87;;
18338;SDS011;9295;44.484;11.240;2023-03-01T13:42:02;20.50;;;13.17;;
18338;SDS011;9295;44.484;11.240;2023-03-01T13:44:32;18.70;;;13.10;;
18338;SDS011;9295;44.484;11.240;2023-03-01T13:47:05;19.90;;;13.50;;
18338;SDS011;9295;44.484;11.240;2023-03-01T13:49:46;17.37;;;13.00;;
18338;SDS011;9295;44.484;11.240;2023-03-01T13:55:14;16.70;;;11.53;;
18338;SDS011;9295;44.484;11.240;2023-03-01T13:57:46;22.03;;;12.17;;
18338;SDS011;9295;44.484;11.240;2023-03-01T14:00:33;16.90;;;11.40;;
18338;SDS011;9295;44.484;11.240;2023-03-01T14:03:04;16.00;;;11.23;;
18338;SDS011;9295;44.484;11.240;2023-03-01T14:05:41;16.00;;;11.30;;
18338;SDS011;9295;44.484;11.240;2023-03-01T14:08:18;20.67;;;11.70;;
18338;SDS011;9295;44.484;11.240;2023-03-01T14:10:53;16.27;;;10.97;;
18338;SDS011;9295;44.484;11.240;2023-03-01T14:13:36;14.97;;;11.60;;
18338;SDS011;9295;44.484;11.240;2023-03-01T14:16:18;17.13;;;11.07;;
18338;SDS011;9295;44.484;11.240;2023-03-01T14:19:03;14.93;;;10.70;;
18338;SDS011;9295;44.484;11.240;2023-03-01T14:21:58;15.30;;;10.53;;
18338;SDS011;9295;44.484;11.240;2023-03-01T14:24:31;14.73;;;10.57;;
18338;SDS011;9295;44.484;11.240;2023-03-01T14:27:04;17.03;;;11.53;;
18338;SDS011;9295;44.484;11.240;2023-03-01T14:29:39;16.87;;;12.20;;
18338;SDS011;9295;44.484;11.240;2023-03-01T14:32:09;16.43;;;11.40;;
18338;SDS011;9295;44.484;11.240;2023-03-01T14:34:42;15.73;;;11.43;;
18338;SDS011;9295;44.484;11.240;2023-03-01T14:37:17;20.67;;;12.17;;
18338;SDS011;9295;44.484;11.240;2023-03-01T14:39:48;15.93;;;11.57;;
18338;SDS011;9295;44.484;11.240;2023-03-01T14:42:18;16.40;;;11.40;;
18338;SDS011;9295;44.484;11.240;2023-03-01T14:44:50;17.53;;;12.40;;
18338;SDS011;9295;44.484;11.240;2023-03-01T14:47:23;14.13;;;10.77;;
18338;SDS011;9295;44.484;11.240;2023-03-01T14:49:56;17.33;;;11.80;;
18338;SDS011;9295;44.484;11.240;2023-03-01T14:52:30;16.37;;;12.07;;
18338;SDS011;9295;44.484;11.240;2023-03-01T14:55:04;16.70;;;11.83;;
18338;SDS011;9295;44.484;11.240;2023-03-01T14:57:36;15.90;;;11.70;;
18338;SDS011;9295;44.484;11.240;2023-03-01T15:00:05;16.80;;;12.17;;
18338;SDS011;9295;44.484;11.240;2023-03-01T15:02:35;18.30;;;11.73;;
18338;SDS011;9295;44.484;11.240;2023-03-01T15:05:06;19.33;;;13.23;;
18338;SDS011;9295;44.484;11.240;2023-03-01T15:07:38;17.67;;;12.40;;
18338;SDS011;9295;44.484;11.240;2023-03-01T15:10:17;17.77;;;13.17;;
18338;SDS011;9295;44.484;11.240;2023-03-01T15:12:50;19.03;;;13.77;;
18338;SDS011;9295;44.484;11.240;2023-03-01T15:15:30;19.43;;;13.93;;